Breckenridge, CO

12:21 PM MDT on October 21, 2014 (GMT -0600)
Copper Mountain | Change Station
CLOSE
Current Station
Airport
Location: Copper Mountain,
Elevation: 12073 ft
Nearby Weather Stations

Elev 12073 ft 39.48 °N, 106.15 °W | Updated 4 minutes ago

Overcast
Overcast
46 °F
Feels Like 41 °F
N
12
Wind Variable Wind from South
Gusts 18 mph

Today
High -- | Low -- °F
--% Chance of Precip.
Yesterday
High -- | Low -- °F
Precip. -- in
7:20 AM 6:16 PM
Waning Crescent, 5% visible
Pressure 30.37 in
Visibility 10.0 miles
Clouds Scattered Clouds 3200 ft
Mostly Cloudy 3800 ft
Overcast 4700 ft
Windchill 41 °F
Dew Point 27 °F
Humidity 46%
Rainfall 0.00 in
Snow Depth 0 in , 0 in , 0 in
UV 2 out of 12
Pollen 3.00 out of 12
Air Quality Not available.
Flu Activity Sporadic
METAR KCCU 211817Z AUTO 17010G16KT 150V210 10SM SCT032 BKN038 OVC047 08/M03 A3037 RMK AO2

More Conditions Fewer Conditions

Pressure 30.37 in
Visibility 10.0 miles
Clouds Scattered Clouds 3200 ft
Mostly Cloudy 3800 ft
Overcast 4700 ft
Windchill 41 °F
Dew Point 27 °F
Humidity 46%
Rainfall 0.00 in
Snow Depth 0 in , 0 in , 0 in
UV 2 out of 12
Pollen 3.00 out of 12
Air Quality Not available.
Flu Activity Sporadic
METAR KCCU 211817Z AUTO 17010G16KT 150V210 10SM SCT032 BKN038 OVC047 08/M03 A3037 RMK AO2

More Conditions Fewer Conditions

10-Day Weather Forecast

Almanac

Astronomy

Oct. 21, 2014 Rise Set
Actual Time 7:20 AM MDT 6:16 PM MDT
Civil Twilight 6:53 AM MDT 6:44 PM MDT
Nautical Twilight 6:22 AM MDT 7:15 PM MDT
Astronomical Twilight 5:51 AM MDT 7:46 PM MDT
Moon 5:08 AM MDT 5:11 PM MDT
Length of Visible Light 11h 50m
Length of Day
10h 56m
Tomorrow will be 2m 25s shorter.
Waning Crescent, 5% of the Moon is Illuminated
Today
Waning Crescent
Oct 23
New
Oct 30
First Quarter
Nov 6
Full
Nov 14
Last Quarter

Today's Extremes

State Highs State Lows

Community

WunderPhotos

Upload Photos

1,763,738 photos uploaded!

Nearby

Snow Depth

Station Depth Elevation
Fremont Pass 0 in 11400 ft
Hoosier Pass 0 in 11400 ft
Michigan Creek 0 in 10600 ft
Loveland Basin 1 in 11400 ft
Grizzly Peak 0 in 11100 ft

Earthquake Activity

City Distance Mag. Time & Date
No recent earthquake activity has been reported nearby.
Minimum magnitude displayed is 2.5.

Coastal Water Temperatures

Place Temperature
No Stations Reporting

Nearby Weather Stations